createdAt,value
2022-10-22T00:02:00.186Z,2.00
2022-10-22T00:04:49.297Z,2.10
2022-10-22T00:07:36.486Z,2.00
2022-10-22T00:10:24.182Z,1.80
2022-10-22T00:13:12.090Z,2.00
2022-10-22T00:15:59.395Z,2.10
2022-10-22T00:18:46.756Z,2.28
2022-10-22T00:21:35.239Z,2.08
2022-10-22T00:24:22.437Z,2.05
2022-10-22T00:27:11.416Z,1.83
2022-10-22T00:29:58.952Z,1.80
2022-10-22T00:32:45.932Z,1.80
2022-10-22T00:35:32.834Z,2.10
2022-10-22T00:38:21.181Z,2.00
2022-10-22T00:41:08.325Z,2.72
2022-10-22T00:43:58.822Z,2.65
2022-10-22T00:46:46.023Z,2.03
2022-10-22T00:49:33.952Z,2.08
2022-10-22T00:52:21.435Z,2.13
2022-10-22T00:55:11.216Z,1.63
2022-10-22T00:58:00.416Z,1.70
2022-10-22T01:00:47.727Z,1.08
2022-10-22T01:03:34.834Z,0.80
2022-10-22T01:06:26.390Z,1.30
2022-10-22T01:09:22.022Z,1.27
2022-10-22T01:12:19.736Z,1.00
2022-10-22T01:15:17.589Z,1.00
2022-10-22T01:18:10.441Z,1.10
2022-10-22T01:21:09.023Z,1.02
2022-10-22T01:24:16.701Z,1.35
2022-10-22T01:27:09.202Z,1.17
2022-10-22T01:30:03.071Z,1.97
2022-10-22T01:32:53.554Z,1.00
2022-10-22T01:35:45.746Z,1.65
2022-10-22T01:38:34.096Z,1.90
2022-10-22T01:41:21.283Z,1.30
2022-10-22T01:44:08.454Z,1.20
2022-10-22T01:47:12.976Z,1.08
2022-10-22T01:53:15.139Z,1.33
2022-10-22T01:56:16.545Z,1.77
2022-10-22T01:59:09.667Z,1.50
2022-10-22T02:02:05.949Z,1.25
2022-10-22T02:04:59.899Z,1.08
2022-10-22T02:07:50.890Z,1.10
2022-10-22T02:10:40.091Z,1.13
2022-10-22T02:13:31.042Z,1.67
2022-10-22T02:16:24.096Z,1.45
2022-10-22T02:19:18.892Z,1.67
2022-10-22T02:22:06.373Z,1.20
2022-10-22T02:24:53.142Z,1.60
2022-10-22T02:27:46.645Z,1.23
2022-10-22T02:30:36.576Z,1.77
2022-10-22T02:33:27.396Z,1.50
2022-10-22T02:36:17.744Z,1.40
2022-10-22T02:39:05.721Z,1.30
2022-10-22T02:41:52.932Z,1.55
2022-10-22T02:44:40.457Z,1.60
2022-10-22T02:47:27.675Z,1.30
2022-10-22T02:50:15.267Z,1.33
2022-10-22T02:53:03.478Z,1.35
2022-10-22T02:55:50.694Z,1.10
2022-10-22T02:58:37.657Z,1.10
2022-10-22T03:01:24.871Z,1.42
2022-10-22T03:04:12.228Z,1.85
2022-10-22T03:06:59.202Z,1.00
2022-10-22T03:09:47.875Z,1.40
2022-10-22T03:12:35.059Z,1.50
2022-10-22T03:15:22.529Z,1.00
2022-10-22T03:18:09.754Z,1.20
2022-10-22T03:21:05.425Z,1.20
2022-10-22T03:23:53.690Z,1.20
2022-10-22T03:26:43.365Z,0.90
2022-10-22T03:29:32.866Z,1.30
2022-10-22T03:32:20.368Z,1.50
2022-10-22T03:35:08.010Z,1.00
2022-10-22T03:37:55.788Z,0.85
2022-10-22T03:40:44.666Z,0.98
2022-10-22T03:43:34.969Z,0.80
2022-10-22T03:46:22.409Z,0.95
2022-10-22T03:49:09.697Z,0.90
2022-10-22T03:51:56.595Z,0.80
2022-10-22T03:54:44.761Z,0.80
2022-10-22T03:57:31.765Z,0.70
2022-10-22T04:00:20.243Z,0.80
2022-10-22T04:03:07.273Z,0.63
2022-10-22T04:05:54.572Z,0.80
2022-10-22T04:08:43.162Z,0.80
2022-10-22T04:11:30.345Z,0.73
2022-10-22T04:14:17.503Z,0.95
2022-10-22T04:17:05.956Z,0.65
2022-10-22T04:19:53.276Z,0.80
2022-10-22T04:22:40.478Z,0.60
2022-10-22T04:25:27.306Z,0.80
2022-10-22T04:28:14.349Z,0.70
2022-10-22T04:31:01.456Z,0.65
2022-10-22T04:33:53.424Z,0.80
2022-10-22T04:36:40.639Z,1.00
2022-10-22T04:39:28.019Z,0.88
2022-10-22T04:42:15.183Z,0.70
2022-10-22T04:45:02.351Z,0.75
2022-10-22T04:47:49.822Z,0.50
2022-10-22T04:50:38.571Z,0.75
2022-10-22T04:53:26.342Z,0.63
2022-10-22T04:56:16.649Z,0.60
2022-10-22T04:59:06.833Z,0.60
2022-10-22T05:01:54.002Z,0.55
2022-10-22T05:04:41.574Z,0.52
2022-10-22T05:07:29.857Z,0.50
2022-10-22T05:10:17.245Z,0.45
2022-10-22T05:13:04.469Z,0.60
2022-10-22T05:15:51.668Z,0.40
2022-10-22T05:18:40.158Z,0.30
2022-10-22T05:21:28.025Z,0.52
2022-10-22T05:24:16.746Z,0.38
2022-10-22T05:27:04.228Z,0.43
2022-10-22T05:29:51.372Z,0.55
2022-10-22T05:32:38.931Z,0.38
2022-10-22T05:35:26.167Z,0.60
2022-10-22T05:38:13.990Z,0.40
2022-10-22T05:41:03.721Z,0.30
2022-10-22T05:43:51.043Z,0.50
2022-10-22T05:46:38.313Z,0.40
2022-10-22T05:49:25.411Z,0.30
2022-10-22T05:52:12.645Z,0.47
2022-10-22T05:55:00.273Z,0.95
2022-10-22T05:57:50.263Z,0.40
2022-10-22T06:00:37.442Z,0.30
2022-10-22T06:03:24.772Z,0.30
2022-10-22T06:06:20.315Z,0.30
2022-10-22T06:09:12.194Z,0.40
2022-10-22T06:11:59.913Z,0.70
2022-10-22T06:14:48.614Z,0.32
2022-10-22T06:17:36.205Z,0.15
2022-10-22T06:20:23.740Z,0.45
2022-10-22T06:23:10.856Z,0.35
2022-10-22T06:25:58.662Z,0.30
2022-10-22T06:28:46.081Z,0.35
2022-10-22T06:31:37.239Z,0.50
2022-10-22T06:34:24.219Z,0.60
2022-10-22T06:37:13.886Z,0.43
2022-10-22T06:40:01.342Z,0.50
2022-10-22T06:42:48.754Z,0.47
2022-10-22T06:45:35.990Z,0.50
2022-10-22T06:48:24.814Z,0.40
2022-10-22T06:51:13.193Z,1.80
2022-10-22T06:54:00.675Z,0.80
2022-10-22T06:56:47.902Z,0.50
2022-10-22T06:59:35.229Z,0.93
2022-10-22T07:02:22.533Z,0.70
2022-10-22T07:05:11.476Z,0.40
2022-10-22T07:07:58.596Z,0.60
2022-10-22T07:10:45.939Z,0.40
2022-10-22T07:13:33.256Z,0.32
2022-10-22T07:16:20.559Z,0.55
2022-10-22T07:19:07.667Z,0.57
2022-10-22T07:21:56.567Z,0.30
2022-10-22T07:24:43.687Z,0.30
2022-10-22T07:27:30.824Z,0.40
2022-10-22T07:30:18.008Z,0.50
2022-10-22T07:33:05.760Z,0.68
2022-10-22T07:35:52.793Z,0.70
2022-10-22T07:38:41.603Z,0.70
2022-10-22T07:41:30.829Z,0.30
2022-10-22T07:44:18.234Z,0.70
2022-10-22T07:47:05.480Z,0.70
2022-10-22T07:49:52.906Z,0.50
2022-10-22T07:52:40.488Z,0.55
2022-10-22T07:55:29.494Z,2.10
2022-10-22T07:58:17.107Z,0.70
2022-10-22T08:01:06.740Z,0.68
2022-10-22T08:03:54.154Z,0.50
2022-10-22T08:06:44.583Z,0.45
2022-10-22T08:09:35.219Z,0.73
2022-10-22T08:12:23.817Z,0.47
2022-10-22T08:15:11.582Z,0.47
2022-10-22T08:17:59.048Z,0.43
2022-10-22T08:20:46.989Z,0.63
2022-10-22T08:23:34.705Z,0.65
2022-10-22T08:26:21.869Z,0.60
2022-10-22T08:29:10.703Z,0.80
2022-10-22T08:31:58.062Z,0.57
2022-10-22T08:34:45.535Z,0.60
2022-10-22T08:37:32.653Z,0.52
2022-10-22T08:40:27.004Z,0.60
2022-10-22T08:43:36.534Z,0.40
2022-10-22T08:46:26.686Z,0.50
2022-10-22T08:49:21.934Z,0.50
2022-10-22T08:52:13.616Z,0.73
2022-10-22T08:55:03.197Z,0.90
2022-10-22T08:57:57.095Z,0.50
2022-10-22T09:00:47.809Z,0.60
2022-10-22T09:03:46.268Z,0.80
2022-10-22T09:06:38.089Z,0.47
2022-10-22T09:09:29.746Z,0.60
2022-10-22T09:12:20.301Z,0.63
2022-10-22T09:15:13.948Z,0.70
2022-10-22T09:18:18.800Z,0.70
2022-10-22T09:21:18.039Z,0.95
2022-10-22T09:24:13.381Z,0.60
2022-10-22T09:27:01.144Z,0.70
2022-10-22T09:29:49.612Z,0.60
2022-10-22T09:32:36.741Z,0.80
2022-10-22T09:35:25.662Z,0.70
2022-10-22T09:38:15.946Z,0.70
2022-10-22T09:41:05.347Z,0.65
2022-10-22T09:43:53.615Z,0.60
2022-10-22T09:46:44.183Z,0.63
2022-10-22T09:49:34.746Z,0.55
2022-10-22T09:52:29.807Z,0.80
2022-10-22T09:55:19.997Z,0.98
2022-10-22T09:58:13.457Z,0.90
2022-10-22T10:01:01.876Z,0.90
2022-10-22T10:03:51.437Z,0.75
2022-10-22T10:06:42.046Z,0.88
2022-10-22T10:09:31.078Z,1.00
2022-10-22T10:12:31.074Z,0.90
2022-10-22T10:15:24.770Z,1.10
2022-10-22T10:18:32.320Z,1.10
2022-10-22T10:21:28.262Z,1.10
2022-10-22T10:24:24.941Z,0.88
2022-10-22T10:27:21.931Z,1.00
2022-10-22T10:30:16.321Z,1.00
2022-10-22T10:33:19.195Z,0.95
2022-10-22T10:36:13.494Z,0.80
2022-10-22T10:39:06.423Z,0.90
2022-10-22T10:42:01.549Z,0.77
2022-10-22T10:44:59.863Z,0.98
2022-10-22T10:48:11.846Z,0.98
2022-10-22T10:51:07.736Z,0.40
2022-10-22T10:54:05.370Z,0.90
2022-10-22T10:56:56.940Z,0.70
2022-10-22T10:59:56.514Z,1.10
2022-10-22T11:03:03.579Z,1.30
2022-10-22T11:05:57.922Z,0.68
2022-10-22T11:08:50.330Z,0.90
2022-10-22T11:11:42.271Z,1.00
2022-10-22T11:14:37.135Z,0.70
2022-10-22T11:17:25.403Z,0.70
2022-10-22T11:20:19.077Z,0.70
2022-10-22T11:23:19.640Z,0.80
2022-10-22T11:26:15.462Z,0.60
2022-10-22T11:29:04.610Z,0.70
2022-10-22T11:31:55.950Z,0.70
2022-10-22T11:34:47.993Z,0.63
2022-10-22T11:37:39.206Z,0.60
2022-10-22T11:40:38.030Z,0.45
2022-10-22T11:43:30.962Z,0.40
2022-10-22T11:46:35.170Z,0.63
2022-10-22T11:49:27.693Z,0.50
2022-10-22T11:52:40.670Z,0.43
2022-10-22T11:55:34.974Z,0.60
2022-10-22T11:58:32.884Z,0.40
2022-10-22T12:01:30.748Z,0.55
2022-10-22T12:04:24.002Z,0.43
2022-10-22T12:07:33.098Z,0.40
2022-10-22T12:10:23.886Z,0.35
2022-10-22T12:13:26.687Z,0.68
2022-10-22T12:16:23.561Z,0.35
2022-10-22T12:19:28.234Z,0.55
2022-10-22T12:22:19.461Z,0.55
2022-10-22T12:25:20.281Z,0.55
2022-10-22T12:28:14.169Z,0.40
2022-10-22T12:31:01.151Z,0.40
2022-10-22T12:33:49.504Z,0.50
2022-10-22T12:36:37.933Z,0.40
2022-10-22T12:39:28.961Z,0.22
2022-10-22T12:42:19.415Z,0.43
2022-10-22T12:45:08.437Z,0.40
2022-10-22T12:47:58.617Z,0.57
2022-10-22T12:50:49.916Z,0.50
2022-10-22T12:53:39.489Z,0.63
2022-10-22T12:56:29.619Z,0.30
2022-10-22T12:59:22.182Z,0.30
2022-10-22T13:02:21.372Z,0.52
2022-10-22T13:05:18.529Z,0.52
2022-10-22T13:08:11.092Z,0.40
2022-10-22T13:10:58.100Z,0.70
2022-10-22T13:13:47.210Z,0.60
2022-10-22T13:19:40.112Z,0.40
2022-10-22T13:22:30.330Z,0.50
2022-10-22T13:25:25.396Z,0.50
2022-10-22T13:28:21.926Z,1.17
2022-10-22T13:31:16.358Z,0.93
2022-10-22T13:34:09.952Z,0.50
2022-10-22T13:37:04.010Z,0.65
2022-10-22T13:39:51.510Z,0.77
2022-10-22T13:42:39.953Z,0.82
2022-10-22T13:45:27.727Z,0.80
2022-10-22T13:48:16.569Z,0.70
2022-10-22T13:51:03.475Z,0.70
2022-10-22T13:53:53.800Z,0.93
2022-10-22T13:56:40.943Z,0.70
2022-10-22T13:59:28.149Z,0.68
2022-10-22T14:02:16.601Z,0.80
2022-10-22T14:05:05.197Z,0.77
2022-10-22T14:07:53.564Z,1.23
2022-10-22T14:10:42.125Z,0.88
2022-10-22T14:13:29.035Z,0.77
2022-10-22T14:16:19.988Z,0.70
2022-10-22T14:19:11.468Z,1.08
2022-10-22T14:21:59.216Z,1.02
2022-10-22T14:24:47.358Z,1.23
2022-10-22T14:27:35.979Z,0.70
2022-10-22T14:30:25.226Z,0.80
2022-10-22T14:33:15.358Z,0.60
2022-10-22T14:36:02.690Z,0.80
2022-10-22T14:38:50.293Z,0.88
2022-10-22T14:41:38.843Z,0.80
2022-10-22T14:44:27.235Z,0.80
2022-10-22T14:47:14.423Z,0.98
2022-10-22T14:50:02.341Z,0.88
2022-10-22T14:52:49.824Z,0.88
2022-10-22T14:55:36.866Z,0.77
2022-10-22T14:58:23.964Z,0.70
2022-10-22T15:01:12.644Z,0.80
2022-10-22T15:04:00.269Z,0.80
2022-10-22T15:06:47.167Z,0.80
2022-10-22T15:09:34.115Z,0.80
2022-10-22T15:12:21.069Z,0.82
2022-10-22T15:15:09.287Z,0.73
2022-10-22T15:17:58.023Z,1.27
2022-10-22T15:20:45.313Z,1.05
2022-10-22T15:23:32.677Z,1.20
2022-10-22T15:26:20.002Z,0.80
2022-10-22T15:29:07.371Z,1.00
2022-10-22T15:31:58.053Z,0.75
2022-10-22T15:34:46.324Z,0.85
2022-10-22T15:37:33.233Z,0.90
2022-10-22T15:40:20.212Z,1.00
2022-10-22T15:43:07.355Z,1.25
2022-10-22T15:46:11.130Z,1.40
2022-10-22T15:48:58.066Z,1.20
2022-10-22T15:51:46.938Z,1.20
2022-10-22T15:54:34.959Z,1.25
2022-10-22T15:57:22.271Z,1.33
2022-10-22T16:00:10.749Z,1.55
2022-10-22T16:03:02.361Z,1.33
2022-10-22T16:05:54.502Z,1.15
2022-10-22T16:08:43.373Z,1.20
2022-10-22T16:11:32.473Z,1.27
2022-10-22T16:14:22.012Z,0.98
2022-10-22T16:17:09.341Z,1.38
2022-10-22T16:19:56.640Z,1.35
2022-10-22T16:22:44.247Z,1.88
2022-10-22T16:25:38.382Z,1.85
2022-10-22T16:28:25.852Z,1.85
2022-10-22T16:31:14.977Z,1.85
2022-10-22T16:34:03.143Z,2.15
2022-10-22T16:39:39.914Z,1.83
2022-10-22T16:42:28.265Z,2.20
2022-10-22T16:48:03.610Z,2.65
2022-10-22T16:50:50.900Z,1.73
2022-10-22T16:53:38.475Z,2.22
2022-10-22T16:56:26.874Z,2.20
2022-10-22T16:59:15.277Z,2.20
2022-10-22T17:04:49.535Z,1.67
2022-10-22T17:07:36.931Z,2.22
2022-10-22T17:10:24.347Z,2.35
2022-10-22T17:13:12.266Z,1.90
2022-10-22T17:16:04.711Z,2.10
2022-10-22T17:18:54.064Z,2.22
2022-10-22T17:21:41.297Z,2.60
2022-10-22T17:24:28.394Z,2.30
2022-10-22T17:27:15.949Z,2.42
2022-10-22T17:30:03.371Z,2.28
2022-10-22T17:32:51.971Z,2.70
2022-10-22T17:35:41.691Z,2.60
2022-10-22T17:38:29.670Z,3.22
2022-10-22T17:41:18.787Z,2.88
2022-10-22T17:44:09.219Z,2.80
2022-10-22T17:46:57.166Z,2.60
2022-10-22T17:49:45.686Z,2.60
2022-10-22T17:52:33.148Z,3.30
2022-10-22T17:55:20.336Z,3.70
2022-10-22T17:58:07.629Z,3.15
2022-10-22T18:00:55.162Z,3.72
2022-10-22T18:03:42.585Z,4.55
2022-10-22T18:06:32.086Z,3.47
2022-10-22T18:09:20.529Z,4.07
2022-10-22T18:12:08.708Z,3.85
2022-10-22T18:14:55.487Z,3.97
2022-10-22T18:17:42.789Z,4.50
2022-10-22T18:20:30.315Z,3.97
2022-10-22T18:23:19.638Z,4.47
2022-10-22T18:26:07.040Z,5.03
2022-10-22T18:28:54.456Z,5.55
2022-10-22T18:31:41.743Z,5.47
2022-10-22T18:34:30.685Z,4.70
2022-10-22T18:37:17.573Z,4.93
2022-10-22T18:40:09.550Z,6.97
2022-10-22T18:42:58.855Z,11.63
2022-10-22T18:45:46.958Z,8.20
2022-10-22T18:48:35.176Z,6.03
2022-10-22T18:51:22.221Z,5.18
2022-10-22T18:54:22.578Z,4.95
2022-10-22T18:57:12.038Z,4.50
2022-10-22T18:59:59.648Z,4.63
2022-10-22T19:02:47.199Z,5.63
2022-10-22T19:05:35.342Z,4.80
2022-10-22T19:08:22.911Z,4.50
2022-10-22T19:11:15.660Z,4.55
2022-10-22T19:14:04.449Z,4.30
2022-10-22T19:16:51.602Z,5.47
2022-10-22T19:19:38.851Z,4.45
2022-10-22T19:22:26.074Z,4.57
2022-10-22T19:25:13.543Z,5.07
2022-10-22T19:28:00.566Z,4.50
2022-10-22T19:30:50.015Z,4.32
2022-10-22T19:33:37.586Z,4.85
2022-10-22T19:36:27.629Z,5.28
2022-10-22T19:39:17.616Z,4.60
2022-10-22T19:42:05.057Z,4.50
2022-10-22T19:44:52.614Z,5.53
2022-10-22T19:47:42.391Z,4.20
2022-10-22T19:50:29.648Z,4.20
2022-10-22T19:53:16.478Z,4.50
2022-10-22T19:56:05.970Z,4.07
2022-10-22T19:58:53.351Z,3.58
2022-10-22T20:01:40.743Z,4.28
2022-10-22T20:04:29.330Z,3.67
2022-10-22T20:07:16.491Z,4.68
2022-10-22T20:10:03.882Z,4.38
2022-10-22T20:12:52.674Z,3.95
2022-10-22T20:15:39.781Z,4.30
2022-10-22T20:18:27.044Z,4.10
2022-10-22T20:21:19.379Z,4.75
2022-10-22T20:24:06.971Z,4.30
2022-10-22T20:26:53.963Z,3.92
2022-10-22T20:29:41.312Z,3.83
2022-10-22T20:32:28.621Z,4.30
2022-10-22T20:35:16.728Z,3.65
2022-10-22T20:38:06.029Z,4.13
2022-10-22T20:41:01.448Z,3.88
2022-10-22T20:43:49.870Z,3.80
2022-10-22T20:46:39.753Z,4.03
2022-10-22T20:49:27.020Z,3.33
2022-10-22T20:52:14.470Z,4.03
2022-10-22T20:55:03.165Z,3.35
2022-10-22T20:57:50.274Z,3.65
2022-10-22T21:00:39.369Z,3.70
2022-10-22T21:03:26.812Z,4.43
2022-10-22T21:06:13.782Z,3.72
2022-10-22T21:09:01.259Z,3.72
2022-10-22T21:11:50.044Z,3.72
2022-10-22T21:14:36.971Z,3.55
2022-10-22T21:17:24.212Z,4.68
2022-10-22T21:22:58.533Z,3.60
2022-10-22T21:25:55.778Z,3.95
2022-10-22T21:28:44.330Z,3.38
2022-10-22T21:31:31.707Z,3.30
2022-10-22T21:34:18.888Z,4.18
2022-10-22T21:37:08.302Z,3.33
2022-10-22T21:39:55.707Z,3.72
2022-10-22T21:42:42.978Z,3.28
2022-10-22T21:45:31.689Z,4.07
2022-10-22T21:48:18.899Z,3.20
2022-10-22T21:51:09.581Z,3.55
2022-10-22T21:53:57.234Z,4.00
2022-10-22T21:56:44.638Z,3.25
2022-10-22T21:59:32.603Z,3.15
2022-10-22T22:05:08.882Z,2.90
2022-10-22T22:07:55.882Z,2.85
2022-10-22T22:10:43.744Z,3.63
2022-10-22T22:13:31.074Z,3.60
2022-10-22T22:16:22.550Z,2.80
2022-10-22T22:19:13.939Z,2.85
2022-10-22T22:22:01.273Z,3.08
2022-10-22T22:24:48.615Z,2.80
2022-10-22T22:27:36.104Z,3.17
2022-10-22T22:30:23.467Z,2.80
2022-10-22T22:33:10.816Z,2.80
2022-10-22T22:36:01.313Z,2.83
2022-10-22T22:38:48.639Z,2.72
2022-10-22T22:41:36.218Z,2.70
2022-10-22T22:44:23.439Z,2.80
2022-10-22T22:47:11.048Z,2.50
2022-10-22T22:49:58.318Z,2.70
2022-10-22T22:52:46.859Z,2.75
2022-10-22T22:55:33.795Z,2.83
2022-10-22T22:58:20.623Z,2.67
2022-10-22T23:01:13.622Z,2.30
2022-10-22T23:04:02.489Z,2.40
2022-10-22T23:06:49.911Z,2.95
2022-10-22T23:09:38.191Z,3.17
2022-10-22T23:12:25.442Z,2.47
2022-10-22T23:15:13.167Z,2.88
2022-10-22T23:18:00.412Z,2.63
2022-10-22T23:20:47.502Z,3.50
2022-10-22T23:23:35.897Z,2.95
2022-10-22T23:26:26.831Z,3.20
2022-10-22T23:29:16.354Z,2.72
2022-10-22T23:32:06.459Z,2.88
2022-10-22T23:34:53.846Z,2.72
2022-10-22T23:37:41.627Z,2.38
2022-10-22T23:40:28.860Z,3.30
2022-10-22T23:43:17.357Z,2.90
2022-10-22T23:46:05.360Z,2.50
2022-10-22T23:48:53.932Z,3.08
2022-10-22T23:51:41.658Z,2.42
2022-10-22T23:54:28.668Z,2.90
2022-10-22T23:57:15.856Z,2.33
